Time;durP1;ratioP1;P1;durP2;ratioP2;P2;SDS_P1;SDS_P2;PMS_P1;PMS_P2;Temp;Humidity;BMP_temperature;BMP_pressure;BME280_temperature;BME280_humidity;BME280_pressure;Samples;Min_cycle;Max_cycle;Signal;HPM_P1;HPM_P2
2022/01/12 00:01:13;;;;;;;8.93;7.07;;;0.00;66.00;;;-1.60;76.13;99760.19;5073440;28;20974;-68
2022/01/12 00:03:40;;;;;;;8.30;7.27;;;0.10;65.80;;;-1.54;76.11;99768.69;5055741;28;20440;-68
2022/01/12 00:06:08;;;;;;;8.37;6.50;;;0.10;65.90;;;-1.57;77.17;99769.75;5074147;28;20433;-69
2022/01/12 00:08:36;;;;;;;8.13;7.17;;;0.10;66.50;;;-1.63;76.91;99770.09;5073690;28;20441;-69
2022/01/12 00:11:05;;;;;;;7.80;6.70;;;0.00;66.30;;;-1.63;75.39;99764.81;5055452;28;20924;-69
2022/01/12 00:13:35;;;;;;;7.87;6.27;;;0.00;65.40;;;-1.55;76.07;99767.84;5055570;28;20526;-70
2022/01/12 00:16:03;;;;;;;9.80;7.20;;;0.10;65.60;;;-1.61;76.26;99774.38;5073583;28;20433;-69
2022/01/12 00:18:31;;;;;;;9.80;7.10;;;0.10;65.80;;;-1.49;76.50;99780.72;5073665;28;20473;-69
2022/01/12 00:20:58;;;;;;;8.97;7.30;;;0.10;66.20;;;-1.50;76.54;99776.38;5055639;28;21024;-69
2022/01/12 00:23:25;;;;;;;8.87;7.50;;;0.20;66.00;;;-1.47;76.29;99778.81;5055699;28;20471;-69
2022/01/12 00:26:04;;;;;;;8.23;7.40;;;0.20;65.80;;;-1.41;75.12;99784.72;5056482;28;20448;-70
2022/01/12 00:34:04;;;;;;;8.17;6.40;;;0.30;63.90;;;-1.41;74.41;99790.00;5076277;28;20467;-69
2022/01/12 00:36:33;;;;;;;7.30;6.17;;;0.30;64.50;;;-1.50;74.26;99778.19;5077995;28;20531;-69
2022/01/12 00:39:01;;;;;;;7.67;6.50;;;0.20;63.90;;;-1.34;73.27;99791.31;5059801;28;20429;-69
2022/01/12 00:41:29;;;;;;;5.70;4.87;;;0.30;63.60;;;-1.16;72.97;99803.44;5079819;28;20524;-70
2022/01/12 00:44:00;;;;;;;6.37;5.40;;;0.40;63.10;;;-1.33;73.56;99799.19;5078488;28;20531;-69
2022/01/12 00:46:29;;;;;;;6.80;5.53;;;0.30;63.10;;;-1.24;73.05;99792.47;5077483;28;20520;-70
2022/01/12 00:48:58;;;;;;;5.50;5.00;;;0.40;63.10;;;-1.26;72.72;99799.66;5059198;28;20433;-69
2022/01/12 00:51:27;;;;;;;6.37;5.00;;;0.40;62.90;;;-1.20;72.11;99798.44;5059425;28;20539;-69
2022/01/12 00:53:54;;;;;;;6.40;5.80;;;0.50;62.30;;;-1.29;72.48;99799.84;5077229;28;20544;-69
2022/01/12 00:56:21;;;;;;;6.57;5.20;;;0.40;62.50;;;-1.29;73.09;99808.66;5059943;28;20564;-68
2022/01/12 00:58:50;;;;;;;6.20;5.60;;;0.30;63.00;;;-1.38;72.65;99806.56;5077077;28;20437;-69
2022/01/12 01:01:19;;;;;;;5.80;4.70;;;0.30;62.30;;;-1.53;73.03;99803.06;5077363;28;20432;-69
2022/01/12 01:03:47;;;;;;;6.33;4.97;;;0.30;62.10;;;-1.60;73.48;99807.03;5077145;28;20433;-69
2022/01/12 01:06:14;;;;;;;6.17;5.57;;;0.10;62.40;;;-1.36;72.56;99803.81;5059645;28;20512;-69
2022/01/12 01:08:43;;;;;;;5.57;5.07;;;0.30;62.60;;;-1.52;73.36;99803.91;5077038;28;20437;-70
2022/01/12 01:11:11;;;;;;;5.47;4.70;;;0.20;62.50;;;-1.32;72.47;99800.03;5058574;28;20916;-70
2022/01/12 01:13:45;;;;;;;6.60;4.90;;;0.30;62.40;;;-1.22;71.72;99805.59;5059842;28;20437;-69
2022/01/12 01:16:23;;;;;;;6.33;5.40;;;0.40;62.20;;;-1.32;72.75;99800.91;5058763;28;20771;-69
2022/01/12 01:27:05;;;;;;;6.67;5.87;;;0.30;62.70;;;-1.38;72.96;99795.13;5075361;28;20460;-69
2022/01/12 01:29:33;;;;;;;6.80;5.77;;;0.30;62.70;;;-1.43;72.92;99796.25;5076167;28;20747;-67
2022/01/12 01:32:01;;;;;;;6.60;5.90;;;0.20;62.20;;;-1.55;73.60;99804.09;5076731;28;20533;-69
2022/01/12 01:34:28;;;;;;;6.77;5.67;;;0.10;62.50;;;-1.52;73.58;99799.47;5076488;28;20500;-69
2022/01/12 01:36:56;;;;;;;6.37;5.40;;;0.10;62.60;;;-1.44;72.65;99802.53;5058076;28;20579;-67
2022/01/12 01:39:27;;;;;;;6.70;4.97;;;0.20;62.40;;;-1.47;72.88;99793.91;5076612;28;20445;-68
2022/01/12 01:41:59;;;;;;;5.37;4.87;;;0.20;62.30;;;-1.52;72.88;99788.88;5058901;28;20442;-68
2022/01/12 01:55:19;;;;;;;6.50;5.90;;;-0.20;62.90;;;-1.95;74.64;99805.59;5076356;28;20548;-69
2022/01/12 01:57:46;;;;;;;5.87;5.27;;;-0.30;63.60;;;-1.97;74.92;99798.66;5058738;28;20437;-69
2022/01/12 02:00:18;;;;;;;6.37;5.73;;;-0.30;63.80;;;-2.02;75.44;99813.03;5076176;28;20547;-70
2022/01/12 02:02:47;;;;;;;5.73;5.20;;;-0.30;63.90;;;-2.04;75.29;99804.34;5075654;28;20767;-70
2022/01/12 02:05:14;;;;;;;5.97;4.60;;;-0.30;64.10;;;-2.10;75.30;99817.91;5058857;28;20771;-70
2022/01/12 02:07:41;;;;;;;6.80;6.20;;;-0.40;63.70;;;-2.13;75.74;99818.09;5075800;28;20976;-70
2022/01/12 02:10:09;;;;;;;8.90;6.87;;;-0.40;64.30;;;-2.29;76.90;99815.50;5075849;28;20444;-68
2022/01/12 02:12:37;;;;;;;10.23;7.67;;;-0.50;64.90;;;-2.26;76.82;99830.34;5075648;28;20532;-68
2022/01/12 02:15:14;;;;;;;6.83;6.13;;;-0.60;65.60;;;-2.22;76.42;99826.56;5057611;28;20767;-68
2022/01/12 02:17:54;;;;;;;6.63;5.93;;;-0.60;65.50;;;-2.21;76.70;99829.16;5075640;28;20523;-69
2022/01/12 02:35:11;;;;;;;7.03;5.43;;;-0.60;65.50;;;-2.35;77.32;99821.16;5076201;28;20490;-69
2022/01/12 02:37:15;;;;;;;6.20;5.53;;;-1.00;66.50;;;-2.89;78.62;99820.59;5075243;28;20433;-69
2022/01/12 02:39:55;;;;;;;7.33;5.20;;;-1.10;66.90;;;-2.87;78.47;99808.13;5075786;28;20433;-68
2022/01/12 02:42:24;;;;;;;7.10;5.30;;;-1.10;67.40;;;-2.73;78.20;99817.09;5056954;28;20796;-70
2022/01/12 02:55:47;;;;;;;7.23;5.50;;;-0.90;67.50;;;-2.52;78.32;99812.38;5074499;28;20479;-69
2022/01/12 02:58:14;;;;;;;6.87;5.50;;;-0.80;67.80;;;-2.58;78.22;99810.94;5074298;28;20433;-70
2022/01/12 03:01:03;;;;;;;6.70;5.60;;;-0.80;67.50;;;-2.69;78.64;99802.75;5074549;28;20449;-69
2022/01/12 03:03:32;;;;;;;6.73;5.57;;;-0.90;68.00;;;-2.59;78.69;99816.31;5056450;28;20493;-69
2022/01/12 03:06:02;;;;;;;7.47;6.07;;;-0.90;68.00;;;-2.59;78.32;99816.31;5075827;28;20899;-69
2022/01/12 03:08:36;;;;;;;5.77;5.17;;;-0.90;67.40;;;-2.64;78.18;99811.28;5056828;28;20441;-69
2022/01/12 03:11:06;;;;;;;6.10;5.50;;;-0.90;67.50;;;-2.58;78.26;99815.38;5074795;28;20499;-69
2022/01/12 03:13:33;;;;;;;6.70;5.97;;;-0.90;67.40;;;-2.63;77.67;99815.66;5074191;28;20440;-69
2022/01/12 03:16:02;;;;;;;6.97;5.53;;;-0.90;67.20;;;-2.64;78.23;99819.25;5074360;28;20947;-70
2022/01/12 03:18:29;;;;;;;6.00;5.40;;;-0.90;67.30;;;-2.56;78.39;99819.63;5074484;28;20437;-69
2022/01/12 03:20:56;;;;;;;6.50;5.60;;;-0.90;67.90;;;-2.60;78.60;99817.25;5074033;28;20516;-69
2022/01/12 03:23:23;;;;;;;7.43;5.80;;;-0.90;67.80;;;-2.58;78.36;99831.25;5074298;28;20437;-69
2022/01/12 03:25:50;;;;;;;7.00;6.30;;;-0.80;67.70;;;-2.57;78.89;99828.53;5056991;28;20447;-68
2022/01/12 03:28:19;;;;;;;8.80;7.00;;;-0.80;67.90;;;-2.57;78.13;99823.22;5056974;28;20441;-67
2022/01/12 03:30:53;;;;;;;6.90;6.20;;;-0.80;67.70;;;-2.53;78.01;99823.03;5074480;28;20440;-68
2022/01/12 03:33:38;;;;;;;6.77;6.03;;;-0.80;67.70;;;-2.49;78.37;99827.25;5076203;28;20468;-69
2022/01/12 03:36:26;;;;;;;6.23;5.50;;;-0.80;67.50;;;-2.43;77.61;99825.09;5074899;28;20471;-67
2022/01/12 03:38:56;;;;;;;5.53;5.00;;;-0.70;67.60;;;-2.40;77.58;99818.75;5056171;28;20936;-67
2022/01/12 03:41:24;;;;;;;6.80;5.90;;;-0.70;67.30;;;-2.46;77.33;99825.25;5074748;28;20429;-67
2022/01/12 03:43:53;;;;;;;6.40;5.80;;;-0.70;66.90;;;-2.47;77.81;99822.72;5073838;28;20532;-67
2022/01/12 03:46:24;;;;;;;8.70;5.63;;;-0.70;67.10;;;-2.52;78.22;99822.97;5055856;28;20437;-68
2022/01/12 03:48:51;;;;;;;6.60;5.90;;;-0.80;67.20;;;-2.54;78.03;99837.22;5073888;28;20525;-68
2022/01/12 03:51:18;;;;;;;7.63;6.03;;;-0.80;67.20;;;-2.62;77.61;99829.72;5055064;28;20430;-68
2022/01/12 03:53:45;;;;;;;7.50;5.73;;;-0.80;67.10;;;-2.83;77.78;99790.31;5071453;28;20993;-68
2022/01/12 03:56:12;;;;;;;6.70;5.97;;;-0.90;67.50;;;-2.56;77.47;99834.69;5072960;28;20548;-69
2022/01/12 03:58:39;;;;;;;6.53;5.40;;;-0.90;67.10;;;-2.56;78.17;99840.81;5073541;28;20438;-69
2022/01/12 04:01:08;;;;;;;6.97;6.27;;;-0.80;67.20;;;-2.52;78.19;99838.00;5073671;28;20968;-69
2022/01/12 04:03:40;;;;;;;5.90;5.30;;;-0.80;67.50;;;-3.02;77.08;99767.53;5055780;28;20473;-68
2022/01/12 04:08:52;;;;;;;6.50;5.80;;;-0.80;66.70;;;-2.71;77.59;99850.47;5073615;28;20441;-68
2022/01/12 04:11:19;;;;;;;5.73;5.20;;;-0.90;66.60;;;-2.76;77.86;99849.03;5073798;28;20548;-69
2022/01/12 04:13:48;;;;;;;6.20;5.60;;;-1.00;66.70;;;-2.82;78.64;99841.41;5073313;28;20468;-68
2022/01/12 04:16:17;;;;;;;7.67;6.37;;;-1.10;67.20;;;-2.92;78.86;99843.72;5073226;28;20468;-68
2022/01/12 04:18:45;;;;;;;6.27;5.60;;;-1.20;67.70;;;-3.05;78.21;99843.53;5072052;28;20964;-67
2022/01/12 04:21:13;;;;;;;6.93;5.90;;;-1.30;67.40;;;-3.08;78.57;99849.00;5055252;28;20508;-68
2022/01/12 04:23:42;;;;;;;6.40;5.10;;;-1.30;67.40;;;-3.21;78.50;99836.44;5073380;28;20433;-68
2022/01/12 04:26:13;;;;;;;7.80;5.93;;;-1.40;67.40;;;-3.25;79.16;99842.84;5056358;28;20502;-68
2022/01/12 04:28:42;;;;;;;8.37;6.63;;;-1.50;67.80;;;-3.31;79.17;99840.50;5073298;28;20905;-68
2022/01/12 04:31:11;;;;;;;6.40;5.80;;;-1.50;68.10;;;-3.51;80.15;99836.25;5055156;28;20911;-68
2022/01/12 04:33:42;;;;;;;7.20;6.33;;;-1.70;68.40;;;-3.48;80.17;99839.63;5073356;28;20900;-68
2022/01/12 04:36:10;;;;;;;8.63;6.63;;;-1.70;69.40;;;-3.50;80.07;99849.41;5055113;28;20902;-68
2022/01/12 04:38:39;;;;;;;7.60;6.10;;;-1.70;69.50;;;-3.50;80.32;99849.41;5073259;28;20540;-68
2022/01/12 04:41:08;;;;;;;7.00;6.23;;;-1.80;69.20;;;-3.55;80.27;99859.38;5055300;28;20527;-69
2022/01/12 04:43:37;;;;;;;7.40;6.60;;;-1.80;69.60;;;-3.61;80.55;99852.63;5055530;28;20460;-68
2022/01/12 04:46:23;;;;;;;6.80;6.00;;;-1.80;69.70;;;-3.56;80.53;99849.75;5073404;28;20513;-68
2022/01/12 04:48:56;;;;;;;7.37;6.77;;;-1.80;69.50;;;-3.67;81.11;99846.81;5073498;28;20447;-69
2022/01/12 04:51:25;;;;;;;8.40;6.90;;;-1.90;70.10;;;-3.66;81.04;99840.59;5054994;28;20477;-69
2022/01/12 04:53:53;;;;;;;7.93;6.80;;;-1.90;70.40;;;-3.68;81.44;99845.09;5055415;28;20437;-68
2022/01/12 04:56:20;;;;;;;8.00;7.20;;;-1.90;70.90;;;-3.70;81.66;99853.97;5073403;28;20461;-69
2022/01/12 04:58:47;;;;;;;7.97;7.20;;;-1.90;71.30;;;-3.70;81.81;99859.25;5073010;28;20468;-68
2022/01/12 05:01:23;;;;;;;6.93;6.33;;;-2.00;71.60;;;-3.67;81.97;99854.72;5073345;28;20943;-68
2022/01/12 05:07:09;;;;;;;9.17;7.50;;;-1.90;72.30;;;-3.82;82.80;99849.31;5072652;28;20861;-68
2022/01/12 05:10:02;;;;;;;8.63;7.67;;;-2.00;72.30;;;-3.93;83.51;99862.19;5073631;28;20893;-68
2022/01/12 05:15:21;;;;;;;10.53;7.70;;;-2.20;73.50;;;-3.91;83.80;99874.41;5073140;28;20766;-68
2022/01/12 05:17:48;;;;;;;10.00;7.57;;;-2.20;74.30;;;-3.99;84.31;99892.41;5073262;28;20507;-68
2022/01/12 05:20:16;;;;;;;8.80;6.83;;;-2.20;74.60;;;-4.04;84.67;99899.72;5074104;28;20528;-68
2022/01/12 05:22:43;;;;;;;10.60;7.77;;;-2.30;74.90;;;-4.15;84.56;99900.25;5076198;28;20781;-68
2022/01/12 05:25:11;;;;;;;8.37;7.30;;;-2.40;75.20;;;-4.08;84.62;99906.06;5058550;28;20548;-68
2022/01/12 05:27:38;;;;;;;9.37;7.23;;;-2.30;75.50;;;-4.09;84.28;99907.84;5058098;28;20463;-68
2022/01/12 05:30:06;;;;;;;9.10;7.63;;;-2.30;75.60;;;-4.22;85.22;99912.00;5076711;28;20437;-69
2022/01/12 05:32:33;;;;;;;8.40;7.60;;;-2.40;76.10;;;-4.05;84.67;99917.31;5076017;28;20920;-68
2022/01/12 05:35:02;;;;;;;7.00;6.40;;;-2.40;76.30;;;-3.95;84.38;99912.44;5076154;28;20498;-68
2022/01/12 05:37:30;;;;;;;10.40;7.63;;;-2.30;76.30;;;-3.87;84.55;99915.56;5058392;28;20445;-68
2022/01/12 05:40:00;;;;;;;9.77;8.13;;;-2.20;76.20;;;-3.74;84.21;99909.66;5076711;28;20782;-70
2022/01/12 05:42:27;;;;;;;8.60;7.80;;;-2.10;76.00;;;-3.64;83.09;99899.47;5076122;28;20467;-72
2022/01/12 05:44:54;;;;;;;10.23;8.77;;;-1.90;75.30;;;-3.85;82.77;99866.16;5076389;28;20441;-72
2022/01/12 05:47:36;;;;;;;9.97;8.60;;;-1.80;74.80;;;-3.43;82.50;99908.94;5058256;28;20582;-71
2022/01/12 05:50:03;;;;;;;9.03;7.77;;;-1.70;74.60;;;-3.36;82.38;99913.94;5058096;28;20469;-70
2022/01/12 05:52:32;;;;;;;8.47;7.57;;;-1.70;74.20;;;-3.33;81.67;99919.03;5058718;28;20524;-71
2022/01/12 05:55:01;;;;;;;10.50;8.23;;;-1.60;73.60;;;-3.28;82.21;99927.59;5059110;28;20445;-82
2022/01/12 05:57:29;;;;;;;11.00;8.30;;;-1.50;73.90;;;-3.11;81.92;99918.78;5076645;28;20422;-73
2022/01/12 05:59:57;;;;;;;9.23;8.20;;;-1.50;74.10;;;-3.01;80.34;99913.84;5074799;28;20523;-71
2022/01/12 06:02:24;;;;;;;9.17;8.00;;;-1.30;73.10;;;-2.94;80.21;99904.66;5075842;28;20516;-71
2022/01/12 06:04:51;;;;;;;9.67;8.00;;;-1.30;72.60;;;-2.99;79.50;99920.78;5076431;28;20475;-69
2022/01/12 06:07:18;;;;;;;9.20;7.67;;;-1.30;71.80;;;-2.92;79.38;99921.31;5076192;28;20521;-76
2022/01/12 06:09:47;;;;;;;8.40;7.50;;;-1.20;71.60;;;-2.80;79.29;99918.94;5075948;28;20502;-77
2022/01/12 06:12:14;;;;;;;9.63;7.60;;;-1.10;71.70;;;-2.70;79.90;99928.06;5058368;28;20451;-77
2022/01/12 06:14:41;;;;;;;13.33;8.00;;;-1.00;71.70;;;-2.77;78.74;99916.13;5076269;28;20904;-77
2022/01/12 06:17:09;;;;;;;10.47;8.33;;;-1.00;70.90;;;-2.66;78.90;99919.00;5076691;28;20468;-79
2022/01/12 06:19:35;;;;;;;9.63;8.17;;;-1.00;70.70;;;-2.58;77.97;99934.47;5075598;28;20557;-79
2022/01/12 06:22:03;;;;;;;11.23;7.13;;;-0.80;70.80;;;-2.24;80.10;99937.06;5060505;28;20520;-77
2022/01/12 06:24:30;;;;;;;8.50;7.40;;;-0.70;72.90;;;-2.41;78.37;99938.84;5058725;28;20441;-78
2022/01/12 06:27:01;;;;;;;8.70;7.80;;;-0.70;70.70;;;-2.42;78.16;99934.50;5076722;28;20527;-76
2022/01/12 06:29:40;;;;;;;11.17;8.30;;;-0.70;70.50;;;-2.38;79.05;99932.53;5075666;28;20944;-77
2022/01/12 06:32:08;;;;;;;9.83;8.07;;;-0.70;71.20;;;-2.45;78.40;99932.88;5059063;28;20828;-78
2022/01/12 06:34:35;;;;;;;10.73;8.67;;;-0.70;70.80;;;-2.27;78.49;99922.22;5079476;28;20468;-76
2022/01/12 06:37:03;;;;;;;11.97;9.50;;;-0.60;71.60;;;-2.48;78.35;99911.84;5082024;28;20465;-74
2022/01/12 06:39:30;;;;;;;8.67;7.80;;;-0.60;70.20;;;-2.46;78.29;99925.84;5092191;28;20451;-76
2022/01/12 06:41:58;;;;;;;10.20;8.30;;;-0.70;70.30;;;-2.66;78.71;99926.94;5074272;28;20464;-75
2022/01/12 06:44:26;;;;;;;10.80;8.33;;;-0.80;69.80;;;-2.69;78.52;99929.78;5074448;28;20456;-76
2022/01/12 06:46:56;;;;;;;10.50;8.60;;;-0.90;70.00;;;-2.48;79.28;99930.38;5082878;28;20502;-75
2022/01/12 06:49:23;;;;;;;12.00;9.03;;;-0.80;70.90;;;-2.65;79.04;99919.88;5080009;28;20460;-75
2022/01/12 06:51:50;;;;;;;10.60;7.97;;;-0.80;70.40;;;-2.68;79.09;99931.47;5060027;28;20441;-75
2022/01/12 06:54:18;;;;;;;16.60;9.97;;;-0.90;70.70;;;-2.58;78.94;99930.03;5076657;28;20449;-78
2022/01/12 06:56:45;;;;;;;16.80;10.60;;;-0.80;70.70;;;-2.55;79.11;99931.69;5075356;28;20555;-75
2022/01/12 06:59:13;;;;;;;12.90;9.47;;;-0.80;70.70;;;-2.37;78.98;99939.53;5075636;28;20480;-75
2022/01/12 07:01:44;;;;;;;18.00;10.90;;;-0.70;71.20;;;-2.41;78.36;99952.09;5076214;28;20461;-75
2022/01/12 07:04:11;;;;;;;13.87;8.47;;;-0.70;70.60;;;-2.50;78.25;99965.81;5075661;28;20449;-77
2022/01/12 07:06:39;;;;;;;11.10;9.37;;;-0.70;70.20;;;-2.04;79.04;99965.94;5076562;28;20440;-78
2022/01/12 07:09:06;;;;;;;12.53;8.77;;;-0.50;72.00;;;-2.36;77.81;99959.78;5057310;28;20445;-77
2022/01/12 07:11:33;;;;;;;9.23;7.70;;;-0.60;70.00;;;-1.89;79.44;99955.41;5057182;28;20441;-76
2022/01/12 07:14:00;;;;;;;11.30;7.50;;;-0.40;72.60;;;-1.98;76.92;99958.56;5057698;28;20488;-78
2022/01/12 07:16:29;;;;;;;11.57;8.00;;;-0.30;69.50;;;-2.09;76.67;99975.91;5076040;28;20547;-78
2022/01/12 07:18:59;;;;;;;8.77;7.93;;;-0.30;68.60;;;-2.41;76.56;99975.91;5053937;28;20511;-78
2022/01/12 07:21:26;;;;;;;10.10;7.40;;;-0.50;67.90;;;-2.66;77.32;99966.66;5061584;28;20438;-78
2022/01/12 07:23:54;;;;;;;9.50;8.57;;;-0.70;68.40;;;-2.44;77.25;99994.63;5057022;28;20442;-79
2022/01/12 07:26:22;;;;;;;8.70;7.90;;;-0.70;68.90;;;-2.37;78.71;99997.78;5075263;28;20433;-80
2022/01/12 07:28:49;;;;;;;11.93;9.00;;;-0.70;69.80;;;-2.35;77.18;100001.22;5063787;28;20496;-78
2022/01/12 07:31:16;;;;;;;11.40;9.20;;;-0.60;68.60;;;-2.27;77.34;99993.72;5050731;28;20438;-78
2022/01/12 07:33:44;;;;;;;10.70;9.60;;;-0.60;69.30;;;-2.09;76.53;99996.28;5055365;28;20434;-78
2022/01/12 07:36:12;;;;;;;10.87;8.67;;;-0.50;68.60;;;-2.24;76.37;99997.97;5053375;28;20524;-77
2022/01/12 07:38:39;;;;;;;11.53;9.53;;;-0.50;68.60;;;-2.02;76.15;99998.50;5054173;28;20449;-79
2022/01/12 07:41:06;;;;;;;11.77;9.27;;;-0.40;68.40;;;-2.01;76.18;100008.16;5054287;28;20525;-75
2022/01/12 07:43:33;;;;;;;12.40;9.50;;;-0.30;68.50;;;-1.89;76.00;100014.53;5054178;28;20437;-76
2022/01/12 07:46:00;;;;;;;17.23;10.30;;;-0.30;68.10;;;-1.59;75.28;100000.47;5053780;28;20442;-77
2022/01/12 07:48:27;;;;;;;10.20;8.63;;;-0.10;68.10;;;-1.66;75.24;100012.41;5052654;28;20541;-77
2022/01/12 07:50:55;;;;;;;12.63;9.60;;;0.00;68.30;;;-1.64;75.31;100025.53;5053894;28;20496;-79
2022/01/12 07:53:23;;;;;;;15.70;11.80;;;0.00;67.60;;;-1.68;75.19;100014.25;5053944;28;20513;-79
2022/01/12 07:55:50;;;;;;;14.27;11.40;;;0.00;67.20;;;-1.81;76.08;100016.75;5055304;28;20465;-77
2022/01/12 07:58:17;;;;;;;13.37;10.20;;;-0.10;67.90;;;-1.74;75.40;100017.25;5053836;28;20520;-77
2022/01/12 08:00:44;;;;;;;16.50;10.63;;;-0.10;68.20;;;-1.86;76.05;100017.00;5053734;28;20909;-76
2022/01/12 08:03:12;;;;;;;11.17;8.90;;;-0.10;67.80;;;-1.95;75.00;100014.03;5053668;28;20525;-77
2022/01/12 08:05:39;;;;;;;10.47;9.37;;;-0.10;66.90;;;-1.76;75.19;100004.09;5052388;28;20495;-76
2022/01/12 08:08:08;;;;;;;8.60;7.80;;;-0.20;67.30;;;-1.67;73.88;100008.00;5053637;28;20845;-77
2022/01/12 08:10:34;;;;;;;9.70;7.57;;;0.00;66.70;;;-1.75;73.63;100000.50;5053664;28;20430;-76
2022/01/12 08:13:02;;;;;;;8.93;7.40;;;-0.10;66.00;;;-1.51;72.41;100002.69;5053052;28;20540;-75
2022/01/12 08:15:29;;;;;;;11.33;8.37;;;0.00;65.20;;;-1.79;73.55;100016.69;5059044;28;20443;-75
2022/01/12 08:17:56;;;;;;;9.87;7.47;;;0.00;65.00;;;-1.90;74.38;100022.56;5058260;28;20503;-78
2022/01/12 08:20:26;;;;;;;9.43;8.47;;;-0.20;65.40;;;-1.80;73.97;100015.81;5055139;28;20989;-76
2022/01/12 08:22:53;;;;;;;13.70;9.30;;;-0.10;65.60;;;-1.76;73.19;100009.38;5036335;28;20442;-75
2022/01/12 08:25:22;;;;;;;11.67;7.97;;;-0.10;65.10;;;-1.76;74.11;100014.69;5035739;28;20877;-79
2022/01/12 08:27:50;;;;;;;9.23;8.10;;;-0.10;65.40;;;-1.68;72.99;100011.59;5036758;28;20473;-79
2022/01/12 08:30:20;;;;;;;11.83;8.40;;;0.00;64.80;;;-1.61;72.86;99993.56;5054023;28;20445;-78
2022/01/12 08:32:49;;;;;;;13.40;9.77;;;0.10;64.90;;;-1.53;72.51;100009.88;5035868;28;20438;-80
2022/01/12 08:35:18;;;;;;;10.30;8.70;;;0.10;64.60;;;-1.64;72.32;100018.47;5053931;28;20441;-78
2022/01/12 08:37:45;;;;;;;9.50;8.17;;;0.10;64.30;;;-1.93;72.64;99997.13;5053077;28;20523;-78
2022/01/12 08:40:14;;;;;;;10.27;8.13;;;-0.10;64.50;;;-1.64;71.84;100007.00;5052261;28;20866;-78
2022/01/12 08:42:42;;;;;;;11.60;8.53;;;0.00;64.00;;;-1.87;73.07;100017.13;5053296;28;20445;-78
2022/01/12 08:45:11;;;;;;;9.90;7.70;;;-0.20;63.80;;;-1.51;72.10;100021.25;5052080;28;20426;-79
2022/01/12 08:47:38;;;;;;;9.13;7.80;;;0.00;64.10;;;-1.75;72.55;100031.47;5036140;28;20461;-79
2022/01/12 08:50:07;;;;;;;19.07;9.70;;;0.00;63.70;;;-1.57;72.06;100024.25;5053333;28;20442;-79
2022/01/12 08:52:35;;;;;;;8.87;7.80;;;0.00;63.80;;;-1.74;72.14;100034.03;5051635;28;20477;-80
2022/01/12 08:55:02;;;;;;;15.33;8.60;;;0.00;63.10;;;-1.53;72.20;100023.13;5054249;28;20437;-80
2022/01/12 08:57:29;;;;;;;10.73;8.80;;;0.00;63.40;;;-1.49;71.88;100037.09;5056809;28;20469;-80
2022/01/12 08:59:58;;;;;;;10.93;9.13;;;0.20;63.60;;;-1.49;72.31;100027.31;5057608;28;20449;-80
2022/01/12 09:02:25;;;;;;;11.53;9.23;;;0.20;63.50;;;-1.28;71.59;100008.47;5041545;28;20529;-79
2022/01/12 09:04:52;;;;;;;11.47;9.20;;;0.40;63.70;;;-1.46;71.77;100027.13;5059677;28;20489;-77
2022/01/12 09:07:19;;;;;;;14.10;9.57;;;0.30;63.50;;;-1.02;71.97;100021.94;5057172;28;20442;-78
2022/01/12 09:09:47;;;;;;;16.07;11.00;;;0.40;63.80;;;-1.04;71.48;100031.81;5057155;28;20532;-76
2022/01/12 09:12:14;;;;;;;13.80;10.83;;;0.60;63.90;;;-0.97;71.00;100035.81;5056628;28;20430;-77
2022/01/12 09:14:41;;;;;;;13.50;10.23;;;0.70;63.10;;;-1.03;71.06;100041.47;5055635;28;20536;-76
2022/01/12 09:17:17;;;;;;;11.50;9.57;;;0.70;62.80;;;-1.32;71.79;100020.16;5039669;28;20545;-76
2022/01/12 09:19:45;;;;;;;17.03;9.73;;;0.50;63.30;;;-0.88;71.00;100053.81;5055876;28;20438;-77
2022/01/12 09:22:12;;;;;;;18.53;10.33;;;0.70;63.00;;;-1.23;71.47;100048.81;5056667;28;20517;-77
2022/01/12 09:24:42;;;;;;;16.13;9.83;;;0.50;63.00;;;-1.43;72.04;100060.59;5055221;28;21006;-76
2022/01/12 09:27:09;;;;;;;10.90;9.70;;;0.40;62.70;;;-1.59;72.20;100058.81;5057101;28;20497;-80
2022/01/12 09:29:36;;;;;;;10.70;9.37;;;0.30;63.00;;;-1.49;72.04;100074.19;5057218;28;20442;-81
2022/01/12 09:32:04;;;;;;;13.97;10.67;;;0.10;63.20;;;-1.46;72.19;100082.81;5057119;28;20438;-81
2022/01/12 09:34:32;;;;;;;17.33;11.30;;;0.20;63.50;;;-1.41;72.48;100081.72;5058573;28;20509;-79
2022/01/12 09:36:59;;;;;;;11.87;9.83;;;0.20;63.60;;;-1.40;72.55;100051.59;5041010;28;20465;-81
2022/01/12 09:39:26;;;;;;;12.83;9.53;;;0.30;63.80;;;-1.05;71.45;100093.78;5042559;28;20456;-80
2022/01/12 09:41:53;;;;;;;18.50;10.47;;;0.50;63.90;;;-0.98;71.26;100108.41;5063257;28;20496;-79
2022/01/12 09:44:20;;;;;;;12.77;9.23;;;0.60;63.20;;;-1.06;72.18;100092.94;5055280;28;20446;-81
2022/01/12 09:46:48;;;;;;;13.43;10.00;;;0.60;63.60;;;-0.95;71.67;100099.41;5053601;28;20438;-82
2022/01/12 09:49:15;;;;;;;14.77;11.50;;;0.50;63.40;;;-0.77;70.87;100108.09;5065008;28;20506;-81
2022/01/12 09:51:44;;;;;;;19.50;11.67;;;0.70;63.10;;;-0.72;70.06;100106.88;5057460;28;20525;-81
2022/01/12 09:54:12;;;;;;;13.63;10.33;;;0.80;62.90;;;-0.86;70.35;100110.31;5039545;28;20447;-80
2022/01/12 09:56:39;;;;;;;14.43;11.40;;;0.80;62.10;;;-0.68;70.13;100107.56;5057336;28;20473;-79
2022/01/12 09:59:06;;;;;;;13.27;10.00;;;0.90;62.20;;;-0.25;68.82;100097.91;5038787;28;20431;-80
2022/01/12 10:01:36;;;;;;;20.30;10.77;;;1.10;62.00;;;-0.02;67.75;100102.66;5057248;28;20811;-80
2022/01/12 10:04:12;;;;;;;15.43;10.40;;;1.30;61.60;;;-0.26;69.11;100090.88;5056434;28;20529;-83
2022/01/12 10:06:43;;;;;;;12.20;10.10;;;1.40;61.10;;;-0.36;69.49;100078.19;5055509;28;20445;-82
2022/01/12 10:09:12;;;;;;;12.77;10.27;;;1.40;61.20;;;0.09;67.27;100095.81;5056275;28;20422;-78
2022/01/12 10:11:49;;;;;;;11.63;10.43;;;1.60;60.40;;;0.01;67.14;100088.31;5056368;28;20465;-79
2022/01/12 10:14:16;;;;;;;12.80;10.80;;;1.70;60.20;;;-0.27;68.36;100095.34;5042705;28;20472;-81
2022/01/12 10:16:52;;;;;;;12.50;10.80;;;1.40;60.30;;;-0.01;68.33;100101.69;5054790;28;20469;-79
2022/01/12 10:19:27;;;;;;;16.40;10.70;;;1.40;60.90;;;-0.32;67.93;100103.59;5055116;28;20469;-79
2022/01/12 10:21:57;;;;;;;16.47;13.17;;;1.40;60.30;;;-0.70;69.44;100098.78;5056238;28;20465;-81
2022/01/12 10:24:26;;;;;;;18.13;12.63;;;1.20;60.60;;;0.23;67.74;100110.88;5056645;28;20790;-79
2022/01/12 10:26:55;;;;;;;13.53;11.37;;;1.60;60.90;;;0.12;67.32;100087.63;5055924;28;20431;-80
2022/01/12 10:29:26;;;;;;;20.90;12.40;;;1.70;60.50;;;0.50;66.29;100104.75;5056010;28;20435;-81
2022/01/12 10:31:56;;;;;;;17.40;11.67;;;1.90;59.90;;;0.48;66.05;100109.31;5038131;28;20438;-79
2022/01/12 10:34:27;;;;;;;12.70;10.90;;;2.00;59.60;;;0.41;65.91;100103.53;5055401;28;20446;-79
2022/01/12 10:36:58;;;;;;;14.90;11.77;;;1.90;59.00;;;0.41;65.96;100109.69;5037413;28;21052;-80
2022/01/12 10:39:29;;;;;;;16.63;12.33;;;1.90;58.90;;;0.58;65.39;100102.41;5055738;28;20446;-81
2022/01/12 10:42:00;;;;;;;15.43;11.50;;;2.10;58.90;;;0.65;65.37;100109.06;5038234;28;20439;-78
2022/01/12 10:44:35;;;;;;;14.63;11.73;;;2.20;58.60;;;0.64;65.31;100112.69;5054450;28;20478;-82
2022/01/12 10:47:13;;;;;;;15.73;14.13;;;2.20;58.80;;;0.77;65.66;100102.06;5054628;28;20439;-78
2022/01/12 10:49:44;;;;;;;16.23;12.57;;;2.30;58.70;;;0.84;65.53;100094.53;5055147;28;20199;-78
2022/01/12 10:52:14;;;;;;;16.30;11.53;;;2.30;58.90;;;0.78;64.70;100098.47;5056091;28;20537;-77
2022/01/12 10:54:51;;;;;;;13.27;11.50;;;2.40;58.00;;;0.77;64.76;100079.94;5038334;28;20444;-75
2022/01/12 10:57:23;;;;;;;17.90;12.73;;;2.50;57.90;;;0.77;65.06;100095.91;5053778;28;20457;-77
2022/01/12 11:00:18;;;;;;;16.13;12.00;;;2.40;57.70;;;0.73;65.24;100084.63;5038369;28;20445;-76
2022/01/12 11:02:47;;;;;;;13.33;10.83;;;2.30;58.10;;;0.10;65.46;99981.38;5057536;28;20454;-77
2022/01/12 11:05:15;;;;;;;15.50;12.40;;;2.20;58.60;;;0.45;66.64;100086.41;5042191;28;20829;-76
2022/01/12 11:07:43;;;;;;;15.97;12.87;;;2.00;58.40;;;0.77;64.81;100080.78;5057090;28;20449;-77
2022/01/12 11:10:12;;;;;;;16.33;12.07;;;2.20;58.20;;;0.87;64.24;100057.06;5059608;28;20454;-77
2022/01/12 11:12:41;;;;;;;17.47;12.70;;;2.40;58.10;;;0.80;64.63;100080.56;5057328;28;20442;-76
2022/01/12 11:15:11;;;;;;;14.93;12.60;;;2.50;57.40;;;0.79;64.60;100078.03;5056559;28;20439;-76
2022/01/12 11:17:40;;;;;;;18.07;13.60;;;2.50;57.50;;;0.84;65.18;100074.13;5055124;28;20777;-77
2022/01/12 11:20:16;;;;;;;16.60;13.10;;;2.40;57.90;;;0.92;64.86;100078.06;5057501;28;21021;-75
2022/01/12 11:22:59;;;;;;;16.30;13.50;;;2.50;57.70;;;0.65;65.35;100070.94;5055717;28;20436;-77